createdAt,value
2019-05-09T00:02:26.217Z,79.03
2019-05-09T00:04:53.254Z,79.03
2019-05-09T00:07:19.595Z,79.12
2019-05-09T00:09:44.939Z,79.04
2019-05-09T00:12:10.388Z,79.47
2019-05-09T00:14:36.094Z,79.21
2019-05-09T00:17:03.704Z,78.93
2019-05-09T00:19:28.957Z,79.57
2019-05-09T00:21:54.818Z,79.78
2019-05-09T00:24:20.133Z,79.21
2019-05-09T00:26:45.782Z,79.46
2019-05-09T00:29:17.259Z,79.23
2019-05-09T00:32:13.838Z,79.06
2019-05-09T00:34:55.225Z,78.69
2019-05-09T00:37:26.141Z,78.87
2019-05-09T00:39:53.311Z,78.38
2019-05-09T00:42:19.082Z,78.60
2019-05-09T00:44:47.282Z,79.40
2019-05-09T00:47:23.961Z,79.44
2019-05-09T00:49:49.304Z,79.53
2019-05-09T00:52:14.769Z,79.04
2019-05-09T00:54:40.143Z,79.57
2019-05-09T00:57:05.500Z,78.81
2019-05-09T00:59:33.087Z,79.30
2019-05-09T01:01:58.292Z,78.98
2019-05-09T01:04:24.241Z,79.33
2019-05-09T01:06:49.739Z,78.78
2019-05-09T01:09:15.579Z,78.64
2019-05-09T01:11:41.277Z,79.34
2019-05-09T01:14:06.713Z,78.87
2019-05-09T01:16:33.834Z,78.45
2019-05-09T01:18:59.705Z,78.39
2019-05-09T01:21:25.172Z,78.76
2019-05-09T01:23:50.628Z,78.45
2019-05-09T01:26:16.118Z,78.10
2019-05-09T01:28:41.545Z,77.84
2019-05-09T01:31:07.175Z,78.08
2019-05-09T01:33:39.184Z,78.14
2019-05-09T01:36:04.835Z,77.69
2019-05-09T01:38:30.291Z,78.06
2019-05-09T01:40:56.015Z,77.47
2019-05-09T01:43:21.445Z,77.13
2019-05-09T01:45:47.232Z,77.46
2019-05-09T01:48:13.968Z,77.54
2019-05-09T01:50:39.518Z,77.78
2019-05-09T01:53:06.073Z,77.23
2019-05-09T01:55:49.562Z,77.15
2019-05-09T01:58:15.014Z,77.14
2019-05-09T02:00:40.451Z,77.78
2019-05-09T02:03:05.908Z,77.42
2019-05-09T02:05:31.361Z,77.77
2019-05-09T02:07:56.807Z,77.74
2019-05-09T02:10:23.275Z,78.30
2019-05-09T02:12:48.812Z,78.32
2019-05-09T02:15:23.636Z,78.08
2019-05-09T02:18:01.363Z,78.21
2019-05-09T02:20:24.156Z,78.59
2019-05-09T02:22:50.054Z,78.45
2019-05-09T02:25:15.584Z,78.33
2019-05-09T02:27:46.076Z,78.33
2019-05-09T02:30:15.122Z,78.63
2019-05-09T02:32:40.533Z,78.29
2019-05-09T02:35:06.927Z,78.63
2019-05-09T02:37:32.346Z,78.66
2019-05-09T02:39:59.134Z,78.25
2019-05-09T02:42:24.804Z,78.57
2019-05-09T02:44:50.266Z,78.15
2019-05-09T02:47:21.429Z,78.44
2019-05-09T02:49:48.641Z,77.93
2019-05-09T02:52:13.965Z,78.04
2019-05-09T02:54:39.530Z,78.19
2019-05-09T02:57:04.942Z,77.86
2019-05-09T02:59:50.223Z,78.22
2019-05-09T03:02:23.478Z,78.07
2019-05-09T03:04:49.145Z,78.39
2019-05-09T03:07:14.621Z,78.60
2019-05-09T03:09:40.066Z,78.62
2019-05-09T03:12:22.802Z,79.54
2019-05-09T03:14:33.081Z,79.34
2019-05-09T03:16:58.952Z,79.65
2019-05-09T03:19:24.551Z,80.07
2019-05-09T03:21:54.713Z,79.42
2019-05-09T03:24:20.189Z,79.23
2019-05-09T03:26:49.546Z,79.68
2019-05-09T03:29:24.110Z,79.56
2019-05-09T03:31:50.745Z,80.31
2019-05-09T03:34:19.467Z,80.69
2019-05-09T03:36:43.595Z,80.75
2019-05-09T03:39:09.178Z,81.04
2019-05-09T03:41:34.569Z,81.42
2019-05-09T03:44:00.024Z,81.48
2019-05-09T03:46:58.110Z,80.71
2019-05-09T03:49:23.956Z,80.82
2019-05-09T03:51:49.402Z,81.08
2019-05-09T03:54:14.963Z,81.08
2019-05-09T03:56:44.568Z,80.89
2019-05-09T03:59:09.944Z,80.88
2019-05-09T04:01:35.433Z,81.06
2019-05-09T04:04:01.186Z,81.57
2019-05-09T04:06:28.215Z,81.44
2019-05-09T04:08:54.143Z,81.83
2019-05-09T04:11:21.995Z,82.08
2019-05-09T04:13:53.976Z,81.69
2019-05-09T04:16:19.909Z,81.67
2019-05-09T04:18:48.600Z,81.57
2019-05-09T04:21:14.137Z,81.48
2019-05-09T04:23:39.841Z,81.80
2019-05-09T04:26:14.667Z,81.75
2019-05-09T04:28:40.204Z,81.73
2019-05-09T04:31:07.360Z,82.14
2019-05-09T04:33:32.901Z,82.16
2019-05-09T04:35:58.388Z,81.65
2019-05-09T04:38:24.259Z,81.57
2019-05-09T04:40:51.311Z,81.92
2019-05-09T04:43:21.788Z,82.20
2019-05-09T04:45:57.931Z,82.52
2019-05-09T04:48:44.375Z,82.29
2019-05-09T04:51:10.031Z,82.55
2019-05-09T04:53:37.727Z,82.70
2019-05-09T04:56:08.835Z,82.59
2019-05-09T04:58:34.315Z,83.15
2019-05-09T05:01:24.590Z,83.29
2019-05-09T05:03:52.298Z,83.17
2019-05-09T05:06:20.550Z,83.43
2019-05-09T05:08:44.970Z,82.98
2019-05-09T05:11:10.766Z,83.25
2019-05-09T05:13:38.364Z,82.54
2019-05-09T05:16:03.573Z,81.94
2019-05-09T05:18:28.965Z,82.13
2019-05-09T05:20:57.458Z,82.52
2019-05-09T05:23:28.764Z,82.82
2019-05-09T05:25:54.555Z,82.82
2019-05-09T05:28:19.955Z,82.61
2019-05-09T05:30:47.596Z,82.44
2019-05-09T05:33:40.530Z,82.20
2019-05-09T05:36:08.103Z,82.65
2019-05-09T05:38:33.613Z,82.41
2019-05-09T05:40:59.071Z,82.33
2019-05-09T05:43:40.035Z,82.54
2019-05-09T05:46:07.675Z,82.54
2019-05-09T05:48:34.493Z,82.35
2019-05-09T05:50:59.985Z,82.49
2019-05-09T05:53:27.604Z,82.74
2019-05-09T05:55:58.572Z,82.13
2019-05-09T05:58:24.274Z,82.11
2019-05-09T06:00:49.721Z,81.59
2019-05-09T06:03:17.648Z,82.03
2019-05-09T06:05:42.632Z,80.94
2019-05-09T06:08:08.361Z,80.32
2019-05-09T06:10:33.827Z,79.42
2019-05-09T06:12:59.211Z,79.58
2019-05-09T06:15:25.040Z,78.81
2019-05-09T06:17:50.478Z,77.96
2019-05-09T06:20:17.741Z,77.77
2019-05-09T06:22:43.584Z,78.48
2019-05-09T06:25:10.163Z,76.57
2019-05-09T06:27:37.576Z,76.15
2019-05-09T06:30:02.851Z,76.85
2019-05-09T06:32:28.574Z,75.48
2019-05-09T06:34:54.567Z,76.45
2019-05-09T06:37:20.077Z,75.50
2019-05-09T06:39:45.579Z,76.64
2019-05-09T06:42:11.126Z,75.93
2019-05-09T06:44:52.444Z,75.19
2019-05-09T06:47:23.498Z,74.64
2019-05-09T06:49:52.441Z,74.32
2019-05-09T06:52:17.919Z,75.17
2019-05-09T06:54:43.850Z,73.60
2019-05-09T06:57:09.510Z,73.10
2019-05-09T06:59:34.947Z,74.35
2019-05-09T07:02:08.083Z,72.85
2019-05-09T07:04:58.205Z,73.00
2019-05-09T07:07:41.702Z,71.66
2019-05-09T07:10:07.719Z,72.13
2019-05-09T07:12:33.487Z,72.82
2019-05-09T07:14:59.022Z,72.87
2019-05-09T07:17:24.718Z,70.29
2019-05-09T07:19:50.284Z,71.72
2019-05-09T07:22:34.627Z,70.21
2019-05-09T07:25:10.416Z,70.59
2019-05-09T07:27:33.956Z,68.29
2019-05-09T07:30:02.069Z,70.74
2019-05-09T07:32:29.195Z,67.62
2019-05-09T07:35:00.297Z,68.28
2019-05-09T07:37:27.520Z,68.71
2019-05-09T07:39:53.311Z,67.78
2019-05-09T07:42:18.767Z,67.67
2019-05-09T07:44:51.989Z,68.80
2019-05-09T07:47:14.481Z,67.49
2019-05-09T07:49:40.178Z,66.30
2019-05-09T07:52:07.562Z,65.95
2019-05-09T07:54:32.781Z,66.20
2019-05-09T07:56:58.778Z,66.34
2019-05-09T07:59:24.161Z,64.93
2019-05-09T08:01:49.591Z,65.42
2019-05-09T08:04:15.051Z,65.70
2019-05-09T08:06:40.557Z,65.36
2019-05-09T08:09:08.406Z,65.98
2019-05-09T08:11:34.295Z,65.36
2019-05-09T08:13:59.738Z,66.28
2019-05-09T08:16:25.196Z,64.27
2019-05-09T08:18:50.709Z,64.48
2019-05-09T08:21:18.076Z,63.93
2019-05-09T08:23:43.413Z,63.48
2019-05-09T08:26:09.074Z,63.67
2019-05-09T08:28:34.543Z,64.24
2019-05-09T08:31:00.012Z,64.31
2019-05-09T08:33:25.635Z,62.62
2019-05-09T08:35:52.656Z,63.66
2019-05-09T08:38:18.647Z,64.30
2019-05-09T08:40:44.069Z,62.18
2019-05-09T08:43:09.446Z,62.40
2019-05-09T08:45:35.072Z,62.66
2019-05-09T08:48:00.504Z,61.95
2019-05-09T08:50:31.765Z,62.14
2019-05-09T08:52:57.739Z,63.39
2019-05-09T08:55:23.355Z,63.08
2019-05-09T08:57:49.139Z,62.64
2019-05-09T09:00:15.197Z,61.20
2019-05-09T09:02:40.954Z,61.67
2019-05-09T09:05:08.626Z,62.64
2019-05-09T09:07:33.761Z,62.07
2019-05-09T09:09:59.166Z,62.36
2019-05-09T09:12:31.350Z,61.69
2019-05-09T09:14:54.512Z,63.61
2019-05-09T09:17:19.999Z,61.56
2019-05-09T09:19:47.745Z,63.63
2019-05-09T09:22:12.812Z,63.33
2019-05-09T09:24:38.304Z,62.20
2019-05-09T09:27:03.768Z,62.01
2019-05-09T09:29:29.267Z,61.68
2019-05-09T09:31:54.645Z,61.70
2019-05-09T09:34:20.112Z,60.72
2019-05-09T09:36:47.923Z,61.31
2019-05-09T09:39:12.807Z,60.99
2019-05-09T09:41:38.986Z,63.39
2019-05-09T09:44:04.430Z,63.61
2019-05-09T09:46:29.907Z,62.80
2019-05-09T09:48:55.406Z,60.87
2019-05-09T09:51:20.861Z,63.21
2019-05-09T09:53:48.658Z,62.66
2019-05-09T09:56:13.545Z,60.63
2019-05-09T09:58:38.991Z,61.11
2019-05-09T10:01:32.428Z,61.15
2019-05-09T10:04:16.801Z,61.50
2019-05-09T10:06:33.890Z,60.43
2019-05-09T10:08:59.647Z,59.87
2019-05-09T10:11:25.218Z,61.70
2019-05-09T10:13:52.054Z,60.72
2019-05-09T10:16:39.419Z,61.34
2019-05-09T10:19:12.508Z,60.04
2019-05-09T10:21:41.909Z,59.96
2019-05-09T10:24:07.980Z,60.11
2019-05-09T10:26:33.576Z,60.34
2019-05-09T10:28:59.427Z,60.53
2019-05-09T10:31:25.158Z,59.24
2019-05-09T10:33:50.855Z,61.38
2019-05-09T10:36:16.590Z,59.09
2019-05-09T10:38:41.940Z,59.20
2019-05-09T10:41:11.202Z,59.66
2019-05-09T10:43:48.404Z,59.99
2019-05-09T10:46:47.566Z,59.34
2019-05-09T10:49:00.593Z,61.33
2019-05-09T10:51:26.032Z,60.26
2019-05-09T10:53:51.737Z,59.92
2019-05-09T10:56:18.793Z,58.99
2019-05-09T10:58:44.522Z,58.59
2019-05-09T11:01:10.025Z,60.58
2019-05-09T11:03:37.690Z,58.25
2019-05-09T11:06:02.693Z,57.27
2019-05-09T11:08:28.753Z,58.58
2019-05-09T11:10:54.518Z,59.69
2019-05-09T11:13:19.927Z,59.69
2019-05-09T11:15:47.787Z,57.98
2019-05-09T11:18:12.614Z,57.17
2019-05-09T11:20:38.094Z,55.66
2019-05-09T11:23:03.642Z,57.02
2019-05-09T11:25:29.125Z,57.71
2019-05-09T11:28:09.913Z,59.26
2019-05-09T11:30:21.804Z,57.34
2019-05-09T11:32:48.125Z,58.02
2019-05-09T11:35:14.073Z,57.65
2019-05-09T11:37:39.671Z,57.82
2019-05-09T11:40:05.757Z,56.87
2019-05-09T11:42:33.365Z,57.89
2019-05-09T11:44:58.751Z,57.58
2019-05-09T11:47:34.299Z,58.75
2019-05-09T11:49:51.556Z,58.60
2019-05-09T11:52:18.319Z,57.63
2019-05-09T11:54:43.902Z,57.66
2019-05-09T11:57:09.633Z,58.53
2019-05-09T11:59:37.762Z,56.69
2019-05-09T12:02:02.267Z,57.48
2019-05-09T12:04:28.242Z,58.66
2019-05-09T12:06:54.046Z,58.50
2019-05-09T12:09:19.548Z,57.49
2019-05-09T12:11:48.030Z,57.14
2019-05-09T12:14:12.650Z,57.16
2019-05-09T12:16:38.345Z,58.38
2019-05-09T12:19:03.929Z,58.76
2019-05-09T12:21:29.694Z,56.98
2019-05-09T12:23:55.171Z,57.06
2019-05-09T12:26:20.704Z,58.43
2019-05-09T12:28:48.449Z,58.44
2019-05-09T12:31:13.373Z,58.55
2019-05-09T12:33:39.177Z,57.64
2019-05-09T12:36:05.374Z,57.26
2019-05-09T12:38:31.057Z,57.63
2019-05-09T12:41:00.438Z,57.22
2019-05-09T12:43:23.903Z,58.39
2019-05-09T12:45:49.658Z,58.74
2019-05-09T12:48:16.173Z,58.64
2019-05-09T12:50:42.463Z,57.88
2019-05-09T12:53:07.951Z,58.06
2019-05-09T12:55:33.422Z,58.61
2019-05-09T12:57:59.601Z,58.80
2019-05-09T13:00:25.540Z,57.10
2019-05-09T13:02:51.239Z,57.07
2019-05-09T13:05:18.203Z,54.66
2019-05-09T13:07:44.303Z,55.65
2019-05-09T13:10:10.410Z,54.31
2019-05-09T13:12:38.583Z,54.51
2019-05-09T13:15:09.420Z,54.87
2019-05-09T13:17:38.457Z,52.21
2019-05-09T13:20:05.115Z,54.76
2019-05-09T13:22:30.606Z,56.05
2019-05-09T13:24:58.663Z,56.58
2019-05-09T13:27:25.637Z,56.09
2019-05-09T13:29:53.256Z,55.15
2019-05-09T13:32:18.759Z,55.46
2019-05-09T13:34:44.149Z,56.96
2019-05-09T13:37:09.602Z,56.63
2019-05-09T13:39:35.162Z,55.74
2019-05-09T13:42:00.814Z,55.13
2019-05-09T13:44:27.755Z,56.32
2019-05-09T13:46:53.655Z,56.31
2019-05-09T13:49:19.587Z,55.99
2019-05-09T13:51:51.398Z,56.79
2019-05-09T13:54:12.358Z,57.47
2019-05-09T13:56:37.832Z,57.66
2019-05-09T13:59:03.281Z,57.00
2019-05-09T14:01:28.741Z,58.31
2019-05-09T14:03:54.220Z,57.90
2019-05-09T14:06:19.683Z,56.99
2019-05-09T14:08:48.552Z,57.55
2019-05-09T14:11:12.466Z,57.34
2019-05-09T14:13:38.464Z,57.39
2019-05-09T14:16:18.877Z,58.05
2019-05-09T14:18:31.414Z,57.62
2019-05-09T14:20:57.421Z,58.73
2019-05-09T14:23:23.060Z,59.18
2019-05-09T14:25:51.851Z,59.90
2019-05-09T14:28:15.629Z,58.58
2019-05-09T14:30:41.409Z,58.94
2019-05-09T14:33:08.172Z,59.50
2019-05-09T14:35:33.871Z,58.96
2019-05-09T14:37:59.330Z,58.80
2019-05-09T14:40:25.053Z,58.03
2019-05-09T14:42:50.351Z,57.88
2019-05-09T14:45:18.016Z,57.09
2019-05-09T14:47:43.004Z,58.15
2019-05-09T14:50:10.166Z,56.99
2019-05-09T14:52:38.194Z,58.05
2019-05-09T14:55:02.735Z,58.54
2019-05-09T14:57:28.675Z,59.22
2019-05-09T14:59:54.092Z,57.63
2019-05-09T15:02:19.570Z,56.59
2019-05-09T15:04:45.022Z,57.37
2019-05-09T15:07:10.505Z,57.54
2019-05-09T15:09:35.933Z,56.58
2019-05-09T15:12:01.557Z,58.09
2019-05-09T15:14:28.929Z,57.24
2019-05-09T15:16:54.352Z,55.39
2019-05-09T15:19:20.040Z,56.61
2019-05-09T15:21:45.563Z,56.65
2019-05-09T15:24:11.563Z,57.69
2019-05-09T15:26:37.439Z,57.63
2019-05-09T15:29:02.958Z,57.40
2019-05-09T15:31:28.851Z,57.59
2019-05-09T15:33:54.280Z,57.22
2019-05-09T15:36:19.781Z,57.38
2019-05-09T15:38:45.297Z,56.58
2019-05-09T15:41:12.283Z,55.33
2019-05-09T15:43:38.483Z,55.78
2019-05-09T15:46:14.688Z,54.78
2019-05-09T15:48:40.141Z,56.18
2019-05-09T15:51:07.578Z,56.84
2019-05-09T15:53:33.211Z,56.13
2019-05-09T15:55:59.191Z,54.46
2019-05-09T15:58:24.884Z,54.76
2019-05-09T16:00:50.498Z,54.54
2019-05-09T16:03:18.451Z,55.01
2019-05-09T16:05:43.031Z,55.05
2019-05-09T16:08:11.315Z,53.01
2019-05-09T16:10:37.408Z,53.73
2019-05-09T16:13:02.879Z,53.09
2019-05-09T16:15:28.833Z,53.45
2019-05-09T16:17:54.809Z,55.14
2019-05-09T16:20:36.293Z,54.87
2019-05-09T16:22:48.391Z,54.76
2019-05-09T16:25:14.403Z,54.98
2019-05-09T16:27:39.934Z,54.79
2019-05-09T16:30:08.440Z,55.33
2019-05-09T16:32:33.786Z,54.83
2019-05-09T16:34:59.263Z,54.98
2019-05-09T16:37:25.290Z,54.94
2019-05-09T16:39:51.325Z,56.07
2019-05-09T16:42:17.165Z,57.22
2019-05-09T16:44:42.837Z,57.67
2019-05-09T16:47:09.343Z,57.69
2019-05-09T16:49:34.817Z,58.16
2019-05-09T16:52:00.446Z,57.54
2019-05-09T16:54:29.602Z,57.80
2019-05-09T16:56:57.483Z,55.21
2019-05-09T16:59:22.883Z,59.48
2019-05-09T17:01:50.317Z,64.93
2019-05-09T17:04:18.883Z,65.81
2019-05-09T17:06:42.949Z,65.92
2019-05-09T17:09:12.553Z,67.17
2019-05-09T17:11:39.827Z,67.87
2019-05-09T17:14:08.033Z,67.71
2019-05-09T17:16:32.882Z,67.18
2019-05-09T17:19:03.099Z,66.49
2019-05-09T17:21:42.091Z,67.93
2019-05-09T17:24:10.451Z,68.06
2019-05-09T17:26:40.273Z,66.33
2019-05-09T17:29:05.900Z,66.83
2019-05-09T17:31:31.550Z,66.40
2019-05-09T17:33:57.928Z,66.08
2019-05-09T17:36:23.968Z,67.03
2019-05-09T17:38:49.650Z,66.90
2019-05-09T17:41:17.561Z,67.67
2019-05-09T17:43:43.040Z,68.22
2019-05-09T17:46:10.115Z,66.32
2019-05-09T17:48:35.563Z,67.00
2019-05-09T17:51:01.110Z,67.27
2019-05-09T17:53:29.319Z,67.37
2019-05-09T17:55:54.139Z,69.45
2019-05-09T17:58:29.266Z,70.09
2019-05-09T18:00:48.620Z,69.50
2019-05-09T18:03:14.753Z,69.81
2019-05-09T18:05:40.582Z,69.83
2019-05-09T18:08:08.109Z,70.77
2019-05-09T18:10:33.305Z,68.78
2019-05-09T18:12:59.180Z,68.79
2019-05-09T18:15:24.749Z,66.10
2019-05-09T18:17:51.168Z,65.50
2019-05-09T18:20:18.317Z,66.64
2019-05-09T18:22:43.887Z,66.90
2019-05-09T18:25:10.244Z,67.31
2019-05-09T18:27:37.771Z,66.46
2019-05-09T18:30:03.262Z,67.20
2019-05-09T18:32:48.170Z,66.63
2019-05-09T18:35:16.662Z,66.79
2019-05-09T18:37:42.325Z,66.47
2019-05-09T18:40:10.504Z,63.34
2019-05-09T18:42:36.695Z,67.17
2019-05-09T18:45:02.653Z,70.47
2019-05-09T18:47:28.634Z,71.89
2019-05-09T18:49:54.117Z,73.30
2019-05-09T18:52:20.090Z,74.52
2019-05-09T18:54:45.611Z,76.58
2019-05-09T18:57:11.371Z,75.98
2019-05-09T18:59:37.060Z,77.02
2019-05-09T19:02:02.825Z,76.45
2019-05-09T19:04:28.452Z,77.23
2019-05-09T19:06:54.227Z,77.24
2019-05-09T19:09:19.735Z,77.47
2019-05-09T19:11:45.506Z,77.41
2019-05-09T19:14:12.740Z,78.57
2019-05-09T19:16:44.910Z,79.28
2019-05-09T19:19:29.829Z,78.74
2019-05-09T19:22:04.117Z,79.21
2019-05-09T19:24:26.554Z,78.25
2019-05-09T19:26:52.133Z,77.38
2019-05-09T19:29:17.754Z,77.60
2019-05-09T19:31:43.699Z,77.39
2019-05-09T19:34:09.351Z,77.29
2019-05-09T19:36:35.652Z,76.59
2019-05-09T19:39:01.975Z,76.51
2019-05-09T19:41:27.834Z,76.54
2019-05-09T19:43:53.607Z,76.30
2019-05-09T19:46:19.670Z,76.02
2019-05-09T19:48:49.654Z,76.90
2019-05-09T19:51:15.765Z,77.12
2019-05-09T19:53:47.638Z,77.22
2019-05-09T19:56:13.424Z,76.69
2019-05-09T19:58:39.255Z,76.97
2019-05-09T20:01:05.096Z,76.96
2019-05-09T20:03:30.357Z,77.69
2019-05-09T20:05:56.522Z,77.51
2019-05-09T20:08:22.082Z,77.42
2019-05-09T20:11:05.241Z,77.36
2019-05-09T20:14:08.523Z,77.70
2019-05-09T20:16:36.618Z,77.71
2019-05-09T20:19:02.422Z,77.97
2019-05-09T20:21:28.304Z,77.62
2019-05-09T20:23:54.120Z,77.40
2019-05-09T20:26:19.790Z,77.52
2019-05-09T20:28:45.493Z,78.74
2019-05-09T20:31:11.329Z,78.24
2019-05-09T20:33:37.113Z,78.20
2019-05-09T20:36:02.549Z,78.11
2019-05-09T20:38:28.216Z,78.01
2019-05-09T20:40:53.796Z,78.59
2019-05-09T20:43:19.451Z,78.64
2019-05-09T20:45:45.425Z,80.53
2019-05-09T20:48:11.052Z,80.37
2019-05-09T20:50:36.945Z,81.43
2019-05-09T20:53:09.737Z,81.00
2019-05-09T20:55:29.945Z,80.15
2019-05-09T20:57:55.856Z,80.61
2019-05-09T21:00:21.602Z,80.66
2019-05-09T21:02:47.259Z,80.43
2019-05-09T21:05:13.687Z,80.53
2019-05-09T21:07:39.334Z,80.25
2019-05-09T21:10:06.211Z,79.55
2019-05-09T21:12:32.148Z,79.49
2019-05-09T21:14:57.776Z,79.00
2019-05-09T21:17:23.405Z,80.48
2019-05-09T21:19:49.057Z,80.02
2019-05-09T21:22:14.967Z,80.72
2019-05-09T21:24:40.605Z,79.88
2019-05-09T21:27:06.267Z,80.50
2019-05-09T21:29:31.813Z,79.61
2019-05-09T21:31:57.479Z,80.16
2019-05-09T21:34:23.128Z,80.19
2019-05-09T21:36:48.857Z,81.00
2019-05-09T21:39:14.383Z,79.71
2019-05-09T21:41:39.812Z,79.59
2019-05-09T21:44:05.304Z,80.34
2019-05-09T21:46:30.742Z,80.54
2019-05-09T21:48:56.201Z,79.76
2019-05-09T21:51:21.629Z,79.36
2019-05-09T21:53:47.082Z,79.38
2019-05-09T21:56:12.551Z,78.98
2019-05-09T21:58:37.933Z,78.53
2019-05-09T22:01:03.985Z,78.32
2019-05-09T22:03:29.412Z,78.73
2019-05-09T22:05:54.878Z,78.98
2019-05-09T22:08:20.372Z,78.43
2019-05-09T22:10:45.802Z,78.74
2019-05-09T22:13:11.253Z,79.59
2019-05-09T22:15:36.715Z,79.04
2019-05-09T22:18:02.186Z,79.07
2019-05-09T22:20:27.633Z,79.69
2019-05-09T22:22:53.098Z,79.50
2019-05-09T22:25:18.639Z,79.29
2019-05-09T22:27:44.016Z,79.80
2019-05-09T22:30:11.862Z,80.05
2019-05-09T22:32:37.428Z,78.94
2019-05-09T22:35:02.827Z,78.89
2019-05-09T22:37:28.346Z,78.82
2019-05-09T22:39:53.845Z,78.03
2019-05-09T22:42:19.233Z,78.01
2019-05-09T22:44:44.827Z,78.19
2019-05-09T22:47:10.483Z,78.21
2019-05-09T22:49:35.939Z,77.78
2019-05-09T22:52:01.639Z,77.63
2019-05-09T22:54:27.038Z,78.78
2019-05-09T22:56:52.520Z,77.80
2019-05-09T22:59:17.953Z,79.14
2019-05-09T23:01:43.699Z,77.76
2019-05-09T23:04:09.412Z,77.65
2019-05-09T23:06:34.877Z,77.18
2019-05-09T23:09:00.149Z,77.21
2019-05-09T23:11:25.615Z,77.36
2019-05-09T23:13:54.172Z,77.44
2019-05-09T23:16:19.717Z,77.72
2019-05-09T23:18:45.200Z,78.07
2019-05-09T23:21:10.694Z,77.89
2019-05-09T23:23:45.047Z,77.92
2019-05-09T23:26:12.079Z,77.30
2019-05-09T23:28:37.542Z,76.95
2019-05-09T23:31:05.905Z,77.66
2019-05-09T23:33:34.897Z,76.90
2019-05-09T23:36:00.597Z,76.75
2019-05-09T23:38:28.779Z,76.08
2019-05-09T23:40:54.278Z,76.63
2019-05-09T23:43:22.058Z,76.25
2019-05-09T23:45:47.479Z,76.28
2019-05-09T23:48:12.958Z,76.53
2019-05-09T23:50:38.659Z,76.66
2019-05-09T23:53:04.307Z,76.42
2019-05-09T23:55:47.305Z,76.98
2019-05-09T23:58:30.723Z,77.16
